Weather


ICAO METAR
KAPA KAPA 242353Z 26018G27KT 7SM -RA FEW033 BKN048 OVC090 06/02 A3014 RMK AO2 PK WND 26027/2352 WSHFT 2337 RAB43 SLP217 P0000 60000 T00610017 10133 20061 53027
KASE KASE 242353Z 28003KT 10SM SCT065 02/M03 A3018 RMK AO2 SLP188 60003 T00221033 10050 21006 53005
KBJC KBJC 242353Z 16005KT 10SM SCT050 SCT055 BKN110 08/00 A3011
KBKF KBKF 242358Z 24017G23KT 8SM -SHRA SCT030 BKN060 BKN090 09/01 A3012 RMK AO2A PK WND 24028/57 SHRAB58 SLP193 P0000 60000 T00920009 10135 20092 53020
KCOS KCOS 242354Z 24007KT 10SM SCT040 BKN070 BKN200 07/00 A3012 RMK AO2 PK WND 27037/2323 WSHFT 2245 RAB02E44 SLP219 VCSH SE-SW P0000 60000 T00670000 10122 20061 53016
KCPR KCPR 242353Z 06011KT 10SM BKN041 OVC049 06/03 A3008 RMK AO2 WSHFT 2240 SLP191 T00610028 10122 20061 52014
KCYS KCYS 242353Z 10008KT 10SM BKN060 BKN080 OVC100 07/02 A3011 RMK AO2 SLP194 T00670022 10106 20067 53014
KDEN KDEN 242353Z 19016G21KT 10SM -RA BKN060 BKN100 BKN220 10/01 A3011 RMK AO2 RAB51 SLP181 P0000 60000 T01000006 10139 20100 53016
KEGE KEGE 242356Z 23012KT 10SM FEW085 08/M02 A3017 RMK AO2 SLP228 60000 T00781017 10089 20028 51007
KFCS KFCS 250010Z AUTO 12012KT 10SM BKN021 BKN095 07/01 A3008 RMK AO2 RAE10 SLP222 $
KFMN KFMN 242353Z 27015G20KT 10SM CLR 16/M09 A3014 RMK AO2 SLP191 T01561089 10167 20122 56001
KFTG KFTG 242348Z 19006KT 10SM BKN060 BKN130 12/M01 A3010
KGCC KGCC 242353Z AUTO 14004KT 10SM OVC021 06/05 A3011 RMK AO2 RAB2254E51 SLP203 P0003 60010 T00610050 10078 20061 53006 $
KGJT KGJT 242353Z 07009KT 10SM FEW070 FEW090 12/04 A3013 RMK AO2 SLP186 60000 T01170044 10117 20083 58001 $
KPUB KPUB 242353Z 27011KT 10SM SCT047 BKN060 OVC095 12/03 A3010 RMK AO2 PK WND 22037/2302 WSHFT 2256 RAB22E50 SLP189 P0000 60000 T01170028 10167 20111 53020
KRAP KRAP 242352Z 12006KT 10SM BKN014 OVC031 05/02 A3018 RMK AO2 SLP242 T00500022 10056 20044 53007
KRCA KRCA 242356Z AUTO 11004KT 10SM BKN012 OVC031 05/05 A3018 RMK AO2 SLP243 T00500050 10058 20045 52007 $

Surface Data
Click here.

This is a composite map contain the following analyses: radar summary (color filled areas), surface data plot (composite station model), frontal locations (in various bold lines) and pressure contours (in thin blue lines).